sensor_id;sensor_type;location;lat;lon;timestamp;P1;durP1;ratioP1;P2;durP2;ratioP2
17384;SDS011;8810;48.680;8.894;2023-01-15T00:01:26;2.00;;;1.20;;
17384;SDS011;8810;48.680;8.894;2023-01-15T00:03:55;0.93;;;0.83;;
17384;SDS011;8810;48.680;8.894;2023-01-15T00:06:23;1.30;;;0.70;;
17384;SDS011;8810;48.680;8.894;2023-01-15T00:08:52;1.50;;;0.70;;
17384;SDS011;8810;48.680;8.894;2023-01-15T00:11:19;0.83;;;0.80;;
17384;SDS011;8810;48.680;8.894;2023-01-15T00:13:46;0.77;;;0.40;;
17384;SDS011;8810;48.680;8.894;2023-01-15T00:16:14;0.87;;;0.57;;
17384;SDS011;8810;48.680;8.894;2023-01-15T00:18:47;1.50;;;0.60;;
17384;SDS011;8810;48.680;8.894;2023-01-15T00:21:15;2.10;;;0.40;;
17384;SDS011;8810;48.680;8.894;2023-01-15T00:23:42;0.70;;;0.50;;
17384;SDS011;8810;48.680;8.894;2023-01-15T00:26:27;1.07;;;0.50;;
17384;SDS011;8810;48.680;8.894;2023-01-15T00:29:14;0.30;;;0.30;;
17384;SDS011;8810;48.680;8.894;2023-01-15T00:31:41;1.00;;;0.40;;
17384;SDS011;8810;48.680;8.894;2023-01-15T00:34:16;0.70;;;0.40;;
17384;SDS011;8810;48.680;8.894;2023-01-15T00:36:43;1.53;;;0.50;;
17384;SDS011;8810;48.680;8.894;2023-01-15T00:39:10;0.40;;;0.40;;
17384;SDS011;8810;48.680;8.894;2023-01-15T00:41:37;0.30;;;0.30;;
17384;SDS011;8810;48.680;8.894;2023-01-15T00:44:03;0.70;;;0.20;;
17384;SDS011;8810;48.680;8.894;2023-01-15T00:46:30;0.67;;;0.53;;
17384;SDS011;8810;48.680;8.894;2023-01-15T00:48:57;0.33;;;0.33;;
17384;SDS011;8810;48.680;8.894;2023-01-15T00:51:25;0.50;;;0.30;;
17384;SDS011;8810;48.680;8.894;2023-01-15T00:53:52;0.93;;;0.33;;
17384;SDS011;8810;48.680;8.894;2023-01-15T00:56:19;0.80;;;0.33;;
17384;SDS011;8810;48.680;8.894;2023-01-15T00:58:46;0.20;;;0.20;;
17384;SDS011;8810;48.680;8.894;2023-01-15T01:01:12;0.20;;;0.20;;
17384;SDS011;8810;48.680;8.894;2023-01-15T01:03:40;0.67;;;0.20;;
17384;SDS011;8810;48.680;8.894;2023-01-15T01:06:07;0.50;;;0.20;;
17384;SDS011;8810;48.680;8.894;2023-01-15T01:08:36;0.10;;;0.10;;
17384;SDS011;8810;48.680;8.894;2023-01-15T01:11:03;3.70;;;0.30;;
17384;SDS011;8810;48.680;8.894;2023-01-15T01:13:32;0.67;;;0.20;;
17384;SDS011;8810;48.680;8.894;2023-01-15T01:15:59;1.33;;;0.30;;
17384;SDS011;8810;48.680;8.894;2023-01-15T01:18:26;1.03;;;0.40;;
17384;SDS011;8810;48.680;8.894;2023-01-15T01:20:53;0.83;;;0.53;;
17384;SDS011;8810;48.680;8.894;2023-01-15T01:23:21;0.70;;;0.43;;
17384;SDS011;8810;48.680;8.894;2023-01-15T01:25:50;0.77;;;0.30;;
17384;SDS011;8810;48.680;8.894;2023-01-15T01:28:16;0.40;;;0.20;;
17384;SDS011;8810;48.680;8.894;2023-01-15T01:30:43;0.50;;;0.20;;
17384;SDS011;8810;48.680;8.894;2023-01-15T01:33:10;0.27;;;0.13;;
17384;SDS011;8810;48.680;8.894;2023-01-15T01:35:37;0.83;;;0.10;;
17384;SDS011;8810;48.680;8.894;2023-01-15T01:38:04;0.33;;;0.30;;
17384;SDS011;8810;48.680;8.894;2023-01-15T01:40:31;0.27;;;0.10;;
17384;SDS011;8810;48.680;8.894;2023-01-15T01:42:59;0.10;;;0.10;;
17384;SDS011;8810;48.680;8.894;2023-01-15T01:45:26;0.10;;;0.10;;
17384;SDS011;8810;48.680;8.894;2023-01-15T01:47:55;0.13;;;0.10;;
17384;SDS011;8810;48.680;8.894;2023-01-15T01:50:26;4.43;;;0.20;;
17384;SDS011;8810;48.680;8.894;2023-01-15T01:52:55;0.10;;;0.10;;
17384;SDS011;8810;48.680;8.894;2023-01-15T01:55:24;0.50;;;0.10;;
17384;SDS011;8810;48.680;8.894;2023-01-15T01:57:53;0.00;;;0.00;;
17384;SDS011;8810;48.680;8.894;2023-01-15T02:00:25;0.07;;;0.07;;
17384;SDS011;8810;48.680;8.894;2023-01-15T02:02:53;0.20;;;0.10;;
17384;SDS011;8810;48.680;8.894;2023-01-15T02:05:22;0.10;;;0.00;;
17384;SDS011;8810;48.680;8.894;2023-01-15T02:07:54;0.10;;;0.10;;
17384;SDS011;8810;48.680;8.894;2023-01-15T02:10:21;4.17;;;0.10;;
17384;SDS011;8810;48.680;8.894;2023-01-15T02:12:50;0.50;;;0.10;;
17384;SDS011;8810;48.680;8.894;2023-01-15T02:15:27;0.17;;;0.10;;
17384;SDS011;8810;48.680;8.894;2023-01-15T02:18:00;0.23;;;0.10;;
17384;SDS011;8810;48.680;8.894;2023-01-15T02:20:36;0.10;;;0.10;;
17384;SDS011;8810;48.680;8.894;2023-01-15T02:23:17;0.30;;;0.10;;
17384;SDS011;8810;48.680;8.894;2023-01-15T02:26:01;0.10;;;0.07;;
17384;SDS011;8810;48.680;8.894;2023-01-15T02:28:47;0.10;;;0.10;;
17384;SDS011;8810;48.680;8.894;2023-01-15T02:31:17;0.20;;;0.00;;
17384;SDS011;8810;48.680;8.894;2023-01-15T02:33:50;0.20;;;0.10;;
17384;SDS011;8810;48.680;8.894;2023-01-15T02:36:23;0.20;;;0.20;;
17384;SDS011;8810;48.680;8.894;2023-01-15T02:38:53;0.23;;;0.20;;
17384;SDS011;8810;48.680;8.894;2023-01-15T02:41:24;0.23;;;0.10;;
17384;SDS011;8810;48.680;8.894;2023-01-15T02:43:54;0.13;;;0.10;;
17384;SDS011;8810;48.680;8.894;2023-01-15T02:46:23;0.40;;;0.10;;
17384;SDS011;8810;48.680;8.894;2023-01-15T02:48:54;0.23;;;0.10;;
17384;SDS011;8810;48.680;8.894;2023-01-15T02:51:24;0.10;;;0.10;;
17384;SDS011;8810;48.680;8.894;2023-01-15T02:53:57;0.03;;;0.03;;
17384;SDS011;8810;48.680;8.894;2023-01-15T02:56:28;0.27;;;0.10;;
17384;SDS011;8810;48.680;8.894;2023-01-15T02:59:03;0.30;;;0.10;;
17384;SDS011;8810;48.680;8.894;2023-01-15T03:01:34;0.20;;;0.10;;
17384;SDS011;8810;48.680;8.894;2023-01-15T03:04:08;0.10;;;0.10;;
17384;SDS011;8810;48.680;8.894;2023-01-15T03:06:42;0.20;;;0.20;;
17384;SDS011;8810;48.680;8.894;2023-01-15T03:09:11;0.10;;;0.10;;
17384;SDS011;8810;48.680;8.894;2023-01-15T03:11:42;0.00;;;0.00;;
17384;SDS011;8810;48.680;8.894;2023-01-15T03:14:14;0.17;;;0.10;;
17384;SDS011;8810;48.680;8.894;2023-01-15T03:16:44;0.33;;;0.10;;
17384;SDS011;8810;48.680;8.894;2023-01-15T03:19:18;0.00;;;0.00;;
17384;SDS011;8810;48.680;8.894;2023-01-15T03:21:49;0.27;;;0.20;;
17384;SDS011;8810;48.680;8.894;2023-01-15T03:24:23;0.00;;;0.00;;
17384;SDS011;8810;48.680;8.894;2023-01-15T03:26:54;0.10;;;0.00;;
17384;SDS011;8810;48.680;8.894;2023-01-15T03:29:23;1.13;;;0.20;;
17384;SDS011;8810;48.680;8.894;2023-01-15T03:31:53;0.20;;;0.10;;
17384;SDS011;8810;48.680;8.894;2023-01-15T03:34:20;0.03;;;0.03;;
17384;SDS011;8810;48.680;8.894;2023-01-15T03:36:46;0.10;;;0.10;;
17384;SDS011;8810;48.680;8.894;2023-01-15T03:39:13;0.03;;;0.00;;
17384;SDS011;8810;48.680;8.894;2023-01-15T03:41:43;0.30;;;0.13;;
17384;SDS011;8810;48.680;8.894;2023-01-15T03:44:17;0.10;;;0.00;;
17384;SDS011;8810;48.680;8.894;2023-01-15T03:46:54;0.17;;;0.10;;
17384;SDS011;8810;48.680;8.894;2023-01-15T03:49:32;0.10;;;0.10;;
17384;SDS011;8810;48.680;8.894;2023-01-15T03:52:09;0.00;;;0.00;;
17384;SDS011;8810;48.680;8.894;2023-01-15T03:54:43;0.10;;;0.03;;
17384;SDS011;8810;48.680;8.894;2023-01-15T03:57:18;0.00;;;0.00;;
17384;SDS011;8810;48.680;8.894;2023-01-15T03:59:54;0.30;;;0.10;;
17384;SDS011;8810;48.680;8.894;2023-01-15T04:02:24;0.00;;;0.00;;
17384;SDS011;8810;48.680;8.894;2023-01-15T04:04:54;0.13;;;0.00;;
17384;SDS011;8810;48.680;8.894;2023-01-15T04:07:23;0.00;;;0.00;;
17384;SDS011;8810;48.680;8.894;2023-01-15T04:09:51;0.20;;;0.10;;
17384;SDS011;8810;48.680;8.894;2023-01-15T04:12:17;0.47;;;0.10;;
17384;SDS011;8810;48.680;8.894;2023-01-15T04:14:44;0.10;;;0.10;;
17384;SDS011;8810;48.680;8.894;2023-01-15T04:17:12;0.70;;;0.10;;
17384;SDS011;8810;48.680;8.894;2023-01-15T04:19:39;0.10;;;0.00;;
17384;SDS011;8810;48.680;8.894;2023-01-15T04:22:08;0.10;;;0.10;;
17384;SDS011;8810;48.680;8.894;2023-01-15T04:24:36;0.00;;;0.00;;
17384;SDS011;8810;48.680;8.894;2023-01-15T04:27:03;0.00;;;0.00;;
17384;SDS011;8810;48.680;8.894;2023-01-15T04:29:30;0.10;;;0.10;;
17384;SDS011;8810;48.680;8.894;2023-01-15T04:31:56;0.00;;;0.00;;
17384;SDS011;8810;48.680;8.894;2023-01-15T04:34:25;1.50;;;0.10;;
17384;SDS011;8810;48.680;8.894;2023-01-15T04:36:52;0.10;;;0.10;;
17384;SDS011;8810;48.680;8.894;2023-01-15T04:39:19;0.17;;;0.10;;
17384;SDS011;8810;48.680;8.894;2023-01-15T04:41:46;0.00;;;0.00;;
17384;SDS011;8810;48.680;8.894;2023-01-15T04:44:31;0.10;;;0.00;;
17384;SDS011;8810;48.680;8.894;2023-01-15T04:46:58;0.47;;;0.10;;
17384;SDS011;8810;48.680;8.894;2023-01-15T04:49:27;0.10;;;0.10;;
17384;SDS011;8810;48.680;8.894;2023-01-15T04:51:54;2.07;;;0.10;;
17384;SDS011;8810;48.680;8.894;2023-01-15T04:54:21;0.20;;;0.10;;
17384;SDS011;8810;48.680;8.894;2023-01-15T04:56:49;0.10;;;0.10;;
17384;SDS011;8810;48.680;8.894;2023-01-15T04:59:17;0.07;;;0.07;;
17384;SDS011;8810;48.680;8.894;2023-01-15T05:01:45;0.20;;;0.07;;
17384;SDS011;8810;48.680;8.894;2023-01-15T05:04:12;0.00;;;0.00;;
17384;SDS011;8810;48.680;8.894;2023-01-15T05:06:41;0.00;;;0.00;;
17384;SDS011;8810;48.680;8.894;2023-01-15T05:09:08;1.63;;;0.07;;
17384;SDS011;8810;48.680;8.894;2023-01-15T05:11:35;0.30;;;0.10;;
17384;SDS011;8810;48.680;8.894;2023-01-15T05:14:03;0.53;;;0.10;;
17384;SDS011;8810;48.680;8.894;2023-01-15T05:16:31;0.10;;;0.00;;
17384;SDS011;8810;48.680;8.894;2023-01-15T05:18:59;0.00;;;0.00;;
17384;SDS011;8810;48.680;8.894;2023-01-15T05:21:29;0.63;;;0.10;;
17384;SDS011;8810;48.680;8.894;2023-01-15T05:24:00;0.17;;;0.10;;
17384;SDS011;8810;48.680;8.894;2023-01-15T05:26:29;0.23;;;0.20;;
17384;SDS011;8810;48.680;8.894;2023-01-15T05:28:57;0.17;;;0.00;;
17384;SDS011;8810;48.680;8.894;2023-01-15T05:31:26;1.60;;;0.10;;
17384;SDS011;8810;48.680;8.894;2023-01-15T05:33:54;0.00;;;0.00;;
17384;SDS011;8810;48.680;8.894;2023-01-15T05:36:22;0.00;;;0.00;;
17384;SDS011;8810;48.680;8.894;2023-01-15T05:38:50;0.30;;;0.00;;
17384;SDS011;8810;48.680;8.894;2023-01-15T05:41:19;0.00;;;0.00;;
17384;SDS011;8810;48.680;8.894;2023-01-15T05:44:06;0.10;;;0.00;;
17384;SDS011;8810;48.680;8.894;2023-01-15T05:46:35;0.00;;;0.00;;
17384;SDS011;8810;48.680;8.894;2023-01-15T05:49:03;0.83;;;0.10;;
17384;SDS011;8810;48.680;8.894;2023-01-15T05:51:32;0.10;;;0.10;;
17384;SDS011;8810;48.680;8.894;2023-01-15T05:53:59;0.00;;;0.00;;
17384;SDS011;8810;48.680;8.894;2023-01-15T05:56:27;0.00;;;0.00;;
17384;SDS011;8810;48.680;8.894;2023-01-15T05:58:54;0.00;;;0.00;;
17384;SDS011;8810;48.680;8.894;2023-01-15T06:01:21;0.00;;;0.00;;
17384;SDS011;8810;48.680;8.894;2023-01-15T06:03:48;0.73;;;0.53;;
17384;SDS011;8810;48.680;8.894;2023-01-15T06:06:17;0.27;;;0.00;;
17384;SDS011;8810;48.680;8.894;2023-01-15T06:08:44;0.00;;;0.00;;
17384;SDS011;8810;48.680;8.894;2023-01-15T06:11:11;0.10;;;0.10;;
17384;SDS011;8810;48.680;8.894;2023-01-15T06:13:40;0.07;;;0.00;;
17384;SDS011;8810;48.680;8.894;2023-01-15T06:16:07;0.03;;;0.03;;
17384;SDS011;8810;48.680;8.894;2023-01-15T06:18:35;0.10;;;0.10;;
17384;SDS011;8810;48.680;8.894;2023-01-15T06:21:03;0.20;;;0.20;;
17384;SDS011;8810;48.680;8.894;2023-01-15T06:23:31;0.00;;;0.00;;
17384;SDS011;8810;48.680;8.894;2023-01-15T06:26:00;0.20;;;0.10;;
17384;SDS011;8810;48.680;8.894;2023-01-15T06:28:29;0.00;;;0.00;;
17384;SDS011;8810;48.680;8.894;2023-01-15T06:30:57;0.00;;;0.00;;
17384;SDS011;8810;48.680;8.894;2023-01-15T06:33:24;0.00;;;0.00;;
17384;SDS011;8810;48.680;8.894;2023-01-15T06:35:51;0.00;;;0.00;;
17384;SDS011;8810;48.680;8.894;2023-01-15T06:38:18;0.00;;;0.00;;
17384;SDS011;8810;48.680;8.894;2023-01-15T06:40:45;0.10;;;0.10;;
17384;SDS011;8810;48.680;8.894;2023-01-15T06:43:12;0.10;;;0.10;;
17384;SDS011;8810;48.680;8.894;2023-01-15T06:45:57;0.20;;;0.20;;
17384;SDS011;8810;48.680;8.894;2023-01-15T06:48:59;0.30;;;0.10;;
17384;SDS011;8810;48.680;8.894;2023-01-15T06:51:25;0.20;;;0.20;;
17384;SDS011;8810;48.680;8.894;2023-01-15T06:53:52;0.30;;;0.30;;
17384;SDS011;8810;48.680;8.894;2023-01-15T06:56:19;0.30;;;0.17;;
17384;SDS011;8810;48.680;8.894;2023-01-15T06:58:46;0.60;;;0.40;;
17384;SDS011;8810;48.680;8.894;2023-01-15T07:01:14;0.70;;;0.40;;
17384;SDS011;8810;48.680;8.894;2023-01-15T07:03:41;0.20;;;0.20;;
17384;SDS011;8810;48.680;8.894;2023-01-15T07:06:08;0.50;;;0.30;;
17384;SDS011;8810;48.680;8.894;2023-01-15T07:08:36;0.20;;;0.20;;
17384;SDS011;8810;48.680;8.894;2023-01-15T07:11:04;0.30;;;0.30;;
17384;SDS011;8810;48.680;8.894;2023-01-15T07:13:32;0.20;;;0.20;;
17384;SDS011;8810;48.680;8.894;2023-01-15T07:15:59;0.67;;;0.20;;
17384;SDS011;8810;48.680;8.894;2023-01-15T07:18:28;0.20;;;0.20;;
17384;SDS011;8810;48.680;8.894;2023-01-15T07:20:57;0.50;;;0.40;;
17384;SDS011;8810;48.680;8.894;2023-01-15T07:23:25;0.33;;;0.30;;
17384;SDS011;8810;48.680;8.894;2023-01-15T07:25:52;0.40;;;0.20;;
17384;SDS011;8810;48.680;8.894;2023-01-15T07:28:19;0.33;;;0.30;;
17384;SDS011;8810;48.680;8.894;2023-01-15T07:30:47;2.17;;;0.50;;
17384;SDS011;8810;48.680;8.894;2023-01-15T07:33:14;0.97;;;0.80;;
17384;SDS011;8810;48.680;8.894;2023-01-15T07:35:42;2.67;;;1.57;;
17384;SDS011;8810;48.680;8.894;2023-01-15T07:38:09;4.33;;;2.40;;
17384;SDS011;8810;48.680;8.894;2023-01-15T07:40:36;1.97;;;1.53;;
17384;SDS011;8810;48.680;8.894;2023-01-15T07:43:03;1.90;;;1.33;;
17384;SDS011;8810;48.680;8.894;2023-01-15T07:45:47;2.27;;;1.40;;
17384;SDS011;8810;48.680;8.894;2023-01-15T07:48:32;1.23;;;0.90;;
17384;SDS011;8810;48.680;8.894;2023-01-15T07:51:17;3.37;;;1.53;;
17384;SDS011;8810;48.680;8.894;2023-01-15T07:53:44;1.13;;;0.93;;
17384;SDS011;8810;48.680;8.894;2023-01-15T07:56:11;3.50;;;1.80;;
17384;SDS011;8810;48.680;8.894;2023-01-15T07:58:38;3.00;;;1.60;;
17384;SDS011;8810;48.680;8.894;2023-01-15T08:01:05;2.47;;;1.53;;
17384;SDS011;8810;48.680;8.894;2023-01-15T08:03:32;2.83;;;1.57;;
17384;SDS011;8810;48.680;8.894;2023-01-15T08:05:59;2.00;;;1.20;;
17384;SDS011;8810;48.680;8.894;2023-01-15T08:08:27;1.70;;;1.00;;
17384;SDS011;8810;48.680;8.894;2023-01-15T08:10:54;1.20;;;0.90;;
17384;SDS011;8810;48.680;8.894;2023-01-15T08:13:43;2.20;;;1.60;;
17384;SDS011;8810;48.680;8.894;2023-01-15T08:16:27;2.00;;;1.40;;
17384;SDS011;8810;48.680;8.894;2023-01-15T08:18:54;1.00;;;0.60;;
17384;SDS011;8810;48.680;8.894;2023-01-15T08:21:21;1.60;;;0.40;;
17384;SDS011;8810;48.680;8.894;2023-01-15T08:23:49;0.63;;;0.63;;
17384;SDS011;8810;48.680;8.894;2023-01-15T08:26:16;0.23;;;0.20;;
17384;SDS011;8810;48.680;8.894;2023-01-15T08:28:43;0.47;;;0.47;;
17384;SDS011;8810;48.680;8.894;2023-01-15T08:31:09;0.67;;;0.50;;
17384;SDS011;8810;48.680;8.894;2023-01-15T08:33:36;1.20;;;0.97;;
17384;SDS011;8810;48.680;8.894;2023-01-15T08:36:03;1.30;;;1.20;;
17384;SDS011;8810;48.680;8.894;2023-01-15T08:38:30;1.07;;;0.90;;
17384;SDS011;8810;48.680;8.894;2023-01-15T08:40:59;1.70;;;1.20;;
17384;SDS011;8810;48.680;8.894;2023-01-15T08:43:28;0.77;;;0.50;;
17384;SDS011;8810;48.680;8.894;2023-01-15T08:45:55;0.30;;;0.20;;
17384;SDS011;8810;48.680;8.894;2023-01-15T08:48:23;0.60;;;0.43;;
17384;SDS011;8810;48.680;8.894;2023-01-15T08:50:50;0.47;;;0.20;;
17384;SDS011;8810;48.680;8.894;2023-01-15T08:53:17;0.10;;;0.10;;
17384;SDS011;8810;48.680;8.894;2023-01-15T08:55:44;0.00;;;0.00;;
17384;SDS011;8810;48.680;8.894;2023-01-15T08:58:13;0.10;;;0.03;;
17384;SDS011;8810;48.680;8.894;2023-01-15T09:00:40;1.03;;;0.27;;
17384;SDS011;8810;48.680;8.894;2023-01-15T09:03:08;0.20;;;0.20;;
17384;SDS011;8810;48.680;8.894;2023-01-15T09:05:35;0.40;;;0.40;;
17384;SDS011;8810;48.680;8.894;2023-01-15T09:08:02;0.30;;;0.20;;
17384;SDS011;8810;48.680;8.894;2023-01-15T09:10:30;1.50;;;0.10;;
17384;SDS011;8810;48.680;8.894;2023-01-15T09:12:57;0.83;;;0.30;;
17384;SDS011;8810;48.680;8.894;2023-01-15T09:15:26;0.00;;;0.00;;
17384;SDS011;8810;48.680;8.894;2023-01-15T09:17:54;0.10;;;0.00;;
17384;SDS011;8810;48.680;8.894;2023-01-15T09:20:21;2.20;;;0.30;;
17384;SDS011;8810;48.680;8.894;2023-01-15T09:22:48;0.20;;;0.13;;
17384;SDS011;8810;48.680;8.894;2023-01-15T09:25:15;0.17;;;0.17;;
17384;SDS011;8810;48.680;8.894;2023-01-15T09:27:43;0.30;;;0.30;;
17384;SDS011;8810;48.680;8.894;2023-01-15T09:30:13;0.10;;;0.10;;
17384;SDS011;8810;48.680;8.894;2023-01-15T09:32:44;0.00;;;0.00;;
17384;SDS011;8810;48.680;8.894;2023-01-15T09:35:11;0.30;;;0.23;;
17384;SDS011;8810;48.680;8.894;2023-01-15T09:37:38;0.60;;;0.43;;
17384;SDS011;8810;48.680;8.894;2023-01-15T09:40:06;1.20;;;0.87;;
17384;SDS011;8810;48.680;8.894;2023-01-15T09:42:48;1.30;;;0.70;;
17384;SDS011;8810;48.680;8.894;2023-01-15T09:45:21;1.00;;;0.60;;
17384;SDS011;8810;48.680;8.894;2023-01-15T09:48:01;0.70;;;0.40;;
17384;SDS011;8810;48.680;8.894;2023-01-15T09:50:44;0.37;;;0.20;;
17384;SDS011;8810;48.680;8.894;2023-01-15T09:53:21;0.53;;;0.30;;
17384;SDS011;8810;48.680;8.894;2023-01-15T09:56:10;0.30;;;0.30;;
17384;SDS011;8810;48.680;8.894;2023-01-15T09:58:45;0.23;;;0.13;;
17384;SDS011;8810;48.680;8.894;2023-01-15T10:01:12;0.13;;;0.13;;
17384;SDS011;8810;48.680;8.894;2023-01-15T10:03:46;0.20;;;0.10;;
17384;SDS011;8810;48.680;8.894;2023-01-15T10:06:20;0.07;;;0.07;;
17384;SDS011;8810;48.680;8.894;2023-01-15T10:08:49;1.90;;;0.20;;
17384;SDS011;8810;48.680;8.894;2023-01-15T10:11:20;0.77;;;0.50;;
17384;SDS011;8810;48.680;8.894;2023-01-15T10:14:14;0.50;;;0.33;;
17384;SDS011;8810;48.680;8.894;2023-01-15T10:16:50;0.37;;;0.30;;
17384;SDS011;8810;48.680;8.894;2023-01-15T10:19:19;0.30;;;0.20;;
17384;SDS011;8810;48.680;8.894;2023-01-15T10:21:48;0.60;;;0.57;;
17384;SDS011;8810;48.680;8.894;2023-01-15T10:24:24;0.50;;;0.30;;
17384;SDS011;8810;48.680;8.894;2023-01-15T10:26:57;0.60;;;0.30;;
17384;SDS011;8810;48.680;8.894;2023-01-15T10:29:26;1.00;;;0.60;;
17384;SDS011;8810;48.680;8.894;2023-01-15T10:32:00;0.93;;;0.53;;
17384;SDS011;8810;48.680;8.894;2023-01-15T10:37:41;0.10;;;0.10;;
17384;SDS011;8810;48.680;8.894;2023-01-15T10:43:04;0.50;;;0.30;;
17384;SDS011;8810;48.680;8.894;2023-01-15T10:45:38;0.30;;;0.20;;
17384;SDS011;8810;48.680;8.894;2023-01-15T10:48:09;0.40;;;0.20;;
17384;SDS011;8810;48.680;8.894;2023-01-15T10:50:43;0.33;;;0.20;;
17384;SDS011;8810;48.680;8.894;2023-01-15T10:53:12;1.10;;;0.40;;
17384;SDS011;8810;48.680;8.894;2023-01-15T10:55:44;0.17;;;0.13;;
17384;SDS011;8810;48.680;8.894;2023-01-15T10:58:16;0.57;;;0.37;;
17384;SDS011;8810;48.680;8.894;2023-01-15T11:00:53;0.27;;;0.20;;
17384;SDS011;8810;48.680;8.894;2023-01-15T11:03:27;0.47;;;0.47;;
17384;SDS011;8810;48.680;8.894;2023-01-15T11:06:01;1.00;;;0.60;;
17384;SDS011;8810;48.680;8.894;2023-01-15T11:08:28;0.80;;;0.40;;
17384;SDS011;8810;48.680;8.894;2023-01-15T11:10:56;0.83;;;0.40;;
17384;SDS011;8810;48.680;8.894;2023-01-15T11:13:30;1.80;;;0.73;;
17384;SDS011;8810;48.680;8.894;2023-01-15T11:16:14;0.50;;;0.40;;
17384;SDS011;8810;48.680;8.894;2023-01-15T11:19:00;0.40;;;0.30;;
17384;SDS011;8810;48.680;8.894;2023-01-15T11:21:46;0.50;;;0.50;;
17384;SDS011;8810;48.680;8.894;2023-01-15T11:24:14;1.00;;;0.57;;
17384;SDS011;8810;48.680;8.894;2023-01-15T11:26:45;0.70;;;0.50;;
17384;SDS011;8810;48.680;8.894;2023-01-15T11:29:14;0.40;;;0.40;;
17384;SDS011;8810;48.680;8.894;2023-01-15T11:31:47;1.03;;;0.57;;
17384;SDS011;8810;48.680;8.894;2023-01-15T11:34:17;1.43;;;0.87;;
17384;SDS011;8810;48.680;8.894;2023-01-15T11:36:47;0.93;;;0.40;;
17384;SDS011;8810;48.680;8.894;2023-01-15T11:39:21;0.33;;;0.30;;
17384;SDS011;8810;48.680;8.894;2023-01-15T11:41:56;2.27;;;0.30;;
17384;SDS011;8810;48.680;8.894;2023-01-15T11:44:49;2.37;;;0.20;;
17384;SDS011;8810;48.680;8.894;2023-01-15T11:47:34;0.33;;;0.30;;
17384;SDS011;8810;48.680;8.894;2023-01-15T11:50:19;0.60;;;0.20;;
17384;SDS011;8810;48.680;8.894;2023-01-15T11:53:05;2.00;;;0.20;;
17384;SDS011;8810;48.680;8.894;2023-01-15T11:55:34;0.27;;;0.27;;
17384;SDS011;8810;48.680;8.894;2023-01-15T11:58:01;0.77;;;0.20;;
17384;SDS011;8810;48.680;8.894;2023-01-15T12:00:29;1.70;;;0.23;;
17384;SDS011;8810;48.680;8.894;2023-01-15T12:03:00;0.10;;;0.03;;
17384;SDS011;8810;48.680;8.894;2023-01-15T12:05:34;0.57;;;0.20;;
17384;SDS011;8810;48.680;8.894;2023-01-15T12:08:02;0.10;;;0.10;;
17384;SDS011;8810;48.680;8.894;2023-01-15T12:10:39;0.83;;;0.20;;
17384;SDS011;8810;48.680;8.894;2023-01-15T12:13:30;0.30;;;0.20;;
17384;SDS011;8810;48.680;8.894;2023-01-15T12:16:05;1.13;;;0.33;;
17384;SDS011;8810;48.680;8.894;2023-01-15T12:18:42;1.87;;;0.20;;
17384;SDS011;8810;48.680;8.894;2023-01-15T12:21:21;0.57;;;0.30;;
17384;SDS011;8810;48.680;8.894;2023-01-15T12:24:06;0.23;;;0.10;;
17384;SDS011;8810;48.680;8.894;2023-01-15T12:26:56;0.27;;;0.20;;
17384;SDS011;8810;48.680;8.894;2023-01-15T12:29:33;0.30;;;0.17;;
17384;SDS011;8810;48.680;8.894;2023-01-15T12:32:06;3.70;;;1.50;;
17384;SDS011;8810;48.680;8.894;2023-01-15T12:34:38;2.77;;;1.47;;
17384;SDS011;8810;48.680;8.894;2023-01-15T12:37:12;1.80;;;0.80;;
17384;SDS011;8810;48.680;8.894;2023-01-15T12:39:45;0.87;;;0.60;;
17384;SDS011;8810;48.680;8.894;2023-01-15T12:42:18;0.60;;;0.30;;
17384;SDS011;8810;48.680;8.894;2023-01-15T12:45:06;1.83;;;0.47;;
17384;SDS011;8810;48.680;8.894;2023-01-15T12:47:39;0.67;;;0.30;;
17384;SDS011;8810;48.680;8.894;2023-01-15T12:50:14;2.67;;;0.90;;
17384;SDS011;8810;48.680;8.894;2023-01-15T12:52:53;0.82;;;0.20;;
17384;SDS011;8810;48.680;8.894;2023-01-15T12:55:27;0.40;;;0.20;;
17384;SDS011;8810;48.680;8.894;2023-01-15T12:57:59;0.83;;;0.20;;
17384;SDS011;8810;48.680;8.894;2023-01-15T13:00:31;0.20;;;0.20;;
17384;SDS011;8810;48.680;8.894;2023-01-15T13:03:08;1.80;;;0.30;;
17384;SDS011;8810;48.680;8.894;2023-01-15T13:05:42;0.90;;;0.30;;
17384;SDS011;8810;48.680;8.894;2023-01-15T13:08:14;1.10;;;0.50;;
17384;SDS011;8810;48.680;8.894;2023-01-15T13:10:47;1.33;;;0.23;;
17384;SDS011;8810;48.680;8.894;2023-01-15T13:13:17;0.83;;;0.40;;
17384;SDS011;8810;48.680;8.894;2023-01-15T13:15:53;1.07;;;0.40;;
17384;SDS011;8810;48.680;8.894;2023-01-15T13:18:35;3.37;;;0.40;;
17384;SDS011;8810;48.680;8.894;2023-01-15T13:21:10;0.43;;;0.40;;
17384;SDS011;8810;48.680;8.894;2023-01-15T13:23:43;1.10;;;0.50;;
17384;SDS011;8810;48.680;8.894;2023-01-15T13:26:30;2.03;;;0.60;;
17384;SDS011;8810;48.680;8.894;2023-01-15T13:29:14;1.97;;;0.60;;
17384;SDS011;8810;48.680;8.894;2023-01-15T13:31:46;1.43;;;0.60;;
17384;SDS011;8810;48.680;8.894;2023-01-15T13:34:24;2.00;;;0.40;;
17384;SDS011;8810;48.680;8.894;2023-01-15T13:36:56;2.07;;;0.53;;
17384;SDS011;8810;48.680;8.894;2023-01-15T13:39:31;2.70;;;0.50;;
17384;SDS011;8810;48.680;8.894;2023-01-15T13:42:02;0.90;;;0.30;;
17384;SDS011;8810;48.680;8.894;2023-01-15T13:44:49;2.27;;;0.50;;
17384;SDS011;8810;48.680;8.894;2023-01-15T13:47:19;0.87;;;0.40;;
17384;SDS011;8810;48.680;8.894;2023-01-15T13:49:49;1.37;;;0.40;;
17384;SDS011;8810;48.680;8.894;2023-01-15T13:52:21;5.13;;;0.47;;
17384;SDS011;8810;48.680;8.894;2023-01-15T13:54:51;3.13;;;0.57;;
17384;SDS011;8810;48.680;8.894;2023-01-15T13:57:23;1.80;;;0.40;;
17384;SDS011;8810;48.680;8.894;2023-01-15T13:59:59;3.90;;;0.57;;
17384;SDS011;8810;48.680;8.894;2023-01-15T14:02:28;0.77;;;0.40;;
17384;SDS011;8810;48.680;8.894;2023-01-15T14:04:57;2.33;;;0.53;;
17384;SDS011;8810;48.680;8.894;2023-01-15T14:07:31;2.03;;;0.50;;
17384;SDS011;8810;48.680;8.894;2023-01-15T14:12:51;1.20;;;0.30;;
17384;SDS011;8810;48.680;8.894;2023-01-15T14:15:34;1.53;;;0.40;;
17384;SDS011;8810;48.680;8.894;2023-01-15T14:18:22;1.50;;;0.40;;
17384;SDS011;8810;48.680;8.894;2023-01-15T14:21:13;1.60;;;0.50;;
17384;SDS011;8810;48.680;8.894;2023-01-15T14:23:57;0.80;;;0.80;;
17384;SDS011;8810;48.680;8.894;2023-01-15T14:26:39;2.43;;;0.67;;
17384;SDS011;8810;48.680;8.894;2023-01-15T14:29:25;2.73;;;0.50;;
17384;SDS011;8810;48.680;8.894;2023-01-15T14:32:10;2.67;;;0.70;;
17384;SDS011;8810;48.680;8.894;2023-01-15T14:34:42;0.63;;;0.33;;
17384;SDS011;8810;48.680;8.894;2023-01-15T14:37:21;2.00;;;0.40;;
17384;SDS011;8810;48.680;8.894;2023-01-15T14:39:52;2.63;;;0.53;;
17384;SDS011;8810;48.680;8.894;2023-01-15T14:42:23;2.37;;;0.30;;
17384;SDS011;8810;48.680;8.894;2023-01-15T14:45:19;1.47;;;0.30;;
17384;SDS011;8810;48.680;8.894;2023-01-15T14:47:53;3.00;;;0.43;;
17384;SDS011;8810;48.680;8.894;2023-01-15T14:50:23;2.33;;;0.50;;
17384;SDS011;8810;48.680;8.894;2023-01-15T14:52:58;1.23;;;0.50;;
17384;SDS011;8810;48.680;8.894;2023-01-15T14:55:45;1.07;;;0.30;;
17384;SDS011;8810;48.680;8.894;2023-01-15T14:58:15;2.27;;;0.47;;
17384;SDS011;8810;48.680;8.894;2023-01-15T15:00:53;2.33;;;0.50;;
17384;SDS011;8810;48.680;8.894;2023-01-15T15:03:27;1.17;;;0.33;;
17384;SDS011;8810;48.680;8.894;2023-01-15T15:05:59;1.17;;;0.43;;
17384;SDS011;8810;48.680;8.894;2023-01-15T15:08:28;1.13;;;0.30;;
17384;SDS011;8810;48.680;8.894;2023-01-15T15:10:57;0.67;;;0.20;;
17384;SDS011;8810;48.680;8.894;2023-01-15T15:13:26;0.50;;;0.20;;
17384;SDS011;8810;48.680;8.894;2023-01-15T15:15:58;2.50;;;0.50;;
17384;SDS011;8810;48.680;8.894;2023-01-15T15:18:33;1.33;;;0.33;;
17384;SDS011;8810;48.680;8.894;2023-01-15T15:21:05;0.60;;;0.17;;
17384;SDS011;8810;48.680;8.894;2023-01-15T15:23:41;3.13;;;0.30;;
17384;SDS011;8810;48.680;8.894;2023-01-15T15:26:20;1.17;;;0.57;;
17384;SDS011;8810;48.680;8.894;2023-01-15T15:28:56;0.20;;;0.20;;
17384;SDS011;8810;48.680;8.894;2023-01-15T15:31:27;0.67;;;0.30;;
17384;SDS011;8810;48.680;8.894;2023-01-15T15:33:59;3.67;;;0.30;;
17384;SDS011;8810;48.680;8.894;2023-01-15T15:36:27;4.27;;;0.93;;